Bonifay, FL (32425)

3:51 PM CDT on July 22, 2014 (GMT -0500)
Bob's Backyard Weather (KFLBONIF2) Elev 131 ft | 30.80 °N, 85.70 °W | Change Station

Current weather conditions updated 1 minute ago

Rain
Rain
86.2 °F
Feels Like 98 °F
N
1.0
Wind Variable Wind from NE
Gusts 6.0 mph

Today is forecast to be Warmer than yesterday.

Today
High -- | Low -- °F
--% Chance of Precip.
Yesterday
High -- | Low -- °F
Precip. -- in
5:54 AM 7:43 PM
Waning Crescent, 15% visible
Pressure 29.92 in
Visibility 10.0 miles
Clouds Clear
Heat Index 98 °F
Dew Point 78 °F
Humidity 76%
Rainfall 0.00 in
Snow Depth Not available.
UV 10 out of 12
Pollen 2.80 out of 12
Air Quality Not available.
Flu Activity Sporadic
METAR K1J0 221958Z AUTO VRB04KT 10SM CLR 29/23 A3004 RMK AO2 RAE05 SLP132 P0000 T02890228 $

More Conditions Fewer Conditions

Pressure 29.92 in
Visibility 10.0 miles
Clouds Clear
Heat Index 98 °F
Dew Point 78 °F
Humidity 76%
Rainfall 0.00 in
Snow Depth Not available.
UV 10 out of 12
Pollen 2.80 out of 12
Air Quality Not available.
Flu Activity Sporadic
METAR K1J0 221958Z AUTO VRB04KT 10SM CLR 29/23 A3004 RMK AO2 RAE05 SLP132 P0000 T02890228 $

More Conditions Fewer Conditions

10-Day Weather Forecast

Almanac

Astronomy

Jul. 22, 2014 Rise Set
Actual Time 5:54 AM CDT 7:43 PM CDT
Civil Twilight 5:27 AM CDT 8:10 PM CDT
Nautical Twilight 4:54 AM CDT 8:42 PM CDT
Astronomical Twilight 4:20 AM CDT 9:17 PM CDT
Moon 2:24 AM CDT 4:22 PM CDT
Length of Visible Light 14h 43m
Length of Day
13h 49m
Tomorrow will be 1m 9s shorter.
Waning Crescent, 15% of the Moon is Illuminated
Today
Waning Crescent
Jul 26
New
Aug 3
First Quarter
Aug 10
Full
Aug 17
Last Quarter

Today's Extremes

State Highs State Lows

Community

WunderPhotos

Upload Photos

1,736,350 photos uploaded!

Nearby

Snow Depth

Station Depth Elevation
No new snow has been reported.

Earthquake Activity

City Distance Mag. Time & Date
No recent earthquake activity has been reported nearby.
Minimum magnitude displayed is 2.5.

Coastal Water Temperatures

Place Temperature
No Stations Reporting

Nearby Weather Stations

Station Location Temp. Heat Index Dew Point Humidity Wind Precip. Elev Updated Type
Bob's Backyard Weather, Bonifay, FL 86.2 °F 98 °F 78 °F 76% NE  at  1.0 mph 0.00 in / hr 131 ft 4:50 PM EDT Normal
County Rd. 85, Hartford, AL 80.1 °F 84 °F 72 °F 76% ESE  at  1.1 mph 0.00 in / hr 290 ft 3:51 PM CDT Rapid Fire

Show More Stations Show Fewer Stations